Babitonga — A8CO2 — position and weather

sailwx.info

Track history (hours):
 
Tides and Currents Weather Stations Pressure Air Temp Water Temp Dewpoint Dewpoint Depression Visibility Wind Speed Wind Dir Waves Ship Positions

Babitonga

Last reported at 2015-Aug-03 05:25 UTC. Time now 2015-Aug-31 17:50 UTC.
Position N 30°41' E 124°19'.
Warning: this ship's position is 28 days out of date.

Length 225 m; beam 32.3 m; draft 13 m.

Type: Cargo ship. MMSI: 636090672.

Date/timePositionNaut miles runAvg speedWind from/ knotsBaromVisibWave heightAir tempDewpointWater temp
2015-Aug-03 05:25N 30°41' E 124°19'3410.2
2015-Aug-03 02:06N 31°12' E 124°05'611.0
2015-Aug-03 01:33N 31°18' E 124°03'3811.0
2015-Aug-02 22:07N 31°55' E 123°58'711.8
2015-Aug-02 21:33N 32°02' E 123°56'1010.4
2015-Aug-02 20:33N 32°12' E 123°56'9 9.1
2015-Aug-02 19:33N 32°21' E 123°55'9 9.2
2015-Aug-02 18:33N 32°30' E 123°54'9 8.4
2015-Aug-02 17:29N 32°39' E 123°50'8 8.6
2015-Aug-02 16:33N 32°45' E 123°44'9 9.0
2015-Aug-02 15:33N 32°50' E 123°36'9 9.0
2015-Aug-02 14:33N 32°56' E 123°27'10 9.8
2015-Aug-02 13:33N 33°02' E 123°18'1110.7
2015-Aug-02 12:30N 33°09' E 123°08'1111.3
2015-Aug-02 11:33N 33°16' E 122°57'1211.7
2015-Aug-02 10:29N 33°24' E 122°47'7111.1
2015-Aug-02 04:04N 33°52' E 121°28'611.9
2015-Aug-02 03:33N 33°52' E 121°20'43 3.9
2015-Aug-01 16:27N 33°18' E 120°49'0 0.0
2015-Aug-01 08:12N 33°18' E 120°49'0 0.0
2015-Aug-01 06:09N 33°18' E 120°49'0 0.0
2015-Jul-31 10:30N 33°18' E 120°49'  
Track history (hours):
 
Tides and Currents Weather Stations Pressure Air Temp Water Temp Dewpoint Dewpoint Depression Visibility Wind Speed Wind Dir Waves Ship Positions

Babitonga

Last reported at 2015-Aug-03 05:25 UTC. Time now 2015-Aug-31 17:50 UTC.
Position N 30°41' E 124°19'.
Warning: this ship's position is 28 days out of date.

Length 225 m; beam 32.3 m; draft 13 m.

Type: Cargo ship. MMSI: 636090672.

Date/timePositionNaut miles runAvg speedWind from/ knotsBaromVisibWave heightAir tempDewpointWater temp
2015-Aug-03 05:25N 30°41' E 124°19'3410.2
2015-Aug-03 02:06N 31°12' E 124°05'611.0
2015-Aug-03 01:33N 31°18' E 124°03'3811.0
2015-Aug-02 22:07N 31°55' E 123°58'711.8
2015-Aug-02 21:33N 32°02' E 123°56'1010.4
2015-Aug-02 20:33N 32°12' E 123°56'9 9.1
2015-Aug-02 19:33N 32°21' E 123°55'9 9.2
2015-Aug-02 18:33N 32°30' E 123°54'9 8.4
2015-Aug-02 17:29N 32°39' E 123°50'8 8.6
2015-Aug-02 16:33N 32°45' E 123°44'9 9.0
2015-Aug-02 15:33N 32°50' E 123°36'9 9.0
2015-Aug-02 14:33N 32°56' E 123°27'10 9.8
2015-Aug-02 13:33N 33°02' E 123°18'1110.7
2015-Aug-02 12:30N 33°09' E 123°08'1111.3
2015-Aug-02 11:33N 33°16' E 122°57'1211.7
2015-Aug-02 10:29N 33°24' E 122°47'7111.1
2015-Aug-02 04:04N 33°52' E 121°28'611.9
2015-Aug-02 03:33N 33°52' E 121°20'43 3.9
2015-Aug-01 16:27N 33°18' E 120°49'0 0.0
2015-Aug-01 08:12N 33°18' E 120°49'0 0.0
2015-Aug-01 06:09N 33°18' E 120°49'0 0.0
2015-Jul-31 10:30N 33°18' E 120°49'  

Dump ship's entire track history